createdAt,value
2023-02-15T00:03:20.899Z,32.50
2023-02-15T00:08:25.175Z,32.50
2023-02-15T00:13:27.992Z,32.50
2023-02-15T00:18:31.083Z,32.50
2023-02-15T00:23:35.711Z,32.40
2023-02-15T00:28:39.034Z,32.40
2023-02-15T00:33:42.463Z,32.50
2023-02-15T00:38:46.646Z,32.60
2023-02-15T00:43:49.544Z,32.60
2023-02-15T00:48:52.443Z,32.40
2023-02-15T00:53:56.630Z,32.40
2023-02-15T00:58:59.524Z,32.40
2023-02-15T01:04:03.169Z,32.50
2023-02-15T01:09:07.478Z,32.30
2023-02-15T01:14:10.417Z,32.30
2023-02-15T01:19:13.938Z,32.40
2023-02-15T01:24:18.129Z,32.40
2023-02-15T01:29:21.064Z,32.40
2023-02-15T01:34:23.958Z,32.50
2023-02-15T01:39:28.245Z,32.30
2023-02-15T01:44:50.474Z,32.40
2023-02-15T01:50:00.505Z,32.10
2023-02-15T01:55:07.338Z,32.30
2023-02-15T02:00:11.829Z,32.10
2023-02-15T02:05:14.718Z,32.20
2023-02-15T02:10:21.347Z,32.10
2023-02-15T02:15:26.671Z,32.20
2023-02-15T02:20:43.247Z,32.20
2023-02-15T02:26:28.079Z,32.10
2023-02-15T02:31:49.899Z,32.10
2023-02-15T02:37:01.792Z,32.10
2023-02-15T02:42:11.444Z,32.10
2023-02-15T02:47:20.609Z,32.00
2023-02-15T02:52:40.757Z,32.00
2023-02-15T02:57:52.658Z,32.00
2023-02-15T03:03:05.827Z,31.80
2023-02-15T03:08:11.235Z,31.80
2023-02-15T03:13:14.173Z,31.80
2023-02-15T03:18:19.785Z,31.90
2023-02-15T03:23:26.795Z,31.80
2023-02-15T03:28:35.473Z,31.90
2023-02-15T03:33:42.545Z,32.00
2023-02-15T03:38:52.192Z,31.80
2023-02-15T03:43:58.599Z,31.70
2023-02-15T03:49:06.344Z,31.60
2023-02-15T03:54:12.842Z,31.60
2023-02-15T03:59:33.386Z,31.50
2023-02-15T04:04:38.714Z,31.60
2023-02-15T04:10:00.657Z,31.60
2023-02-15T04:15:35.274Z,31.70
2023-02-15T04:20:55.409Z,31.80
2023-02-15T04:25:59.975Z,31.60
2023-02-15T04:31:03.041Z,31.60
2023-02-15T04:36:07.207Z,31.50
2023-02-15T04:41:13.247Z,31.40
2023-02-15T04:46:16.105Z,31.40
2023-02-15T04:51:19.034Z,31.50
2023-02-15T04:56:23.337Z,31.50
2023-02-15T05:01:26.281Z,31.60
2023-02-15T05:06:29.216Z,31.70
2023-02-15T05:11:33.650Z,31.70
2023-02-15T05:16:36.511Z,31.70
2023-02-15T05:21:39.375Z,31.70
2023-02-15T05:27:01.147Z,31.50
2023-02-15T05:32:05.276Z,31.50
2023-02-15T05:37:08.477Z,31.30
2023-02-15T05:42:12.781Z,31.20
2023-02-15T05:47:15.630Z,31.30
2023-02-15T05:52:18.524Z,31.30
2023-02-15T05:57:22.682Z,31.20
2023-02-15T06:02:25.665Z,31.20
2023-02-15T06:07:28.576Z,31.20
2023-02-15T06:12:32.840Z,31.20
2023-02-15T06:17:36.253Z,31.10
2023-02-15T06:22:39.099Z,31.20
2023-02-15T06:27:44.890Z,31.20
2023-02-15T06:32:47.933Z,31.40
2023-02-15T06:37:51.111Z,31.60
2023-02-15T06:42:55.309Z,31.70
2023-02-15T06:47:58.231Z,31.90
2023-02-15T06:53:01.248Z,32.00
2023-02-15T06:58:05.467Z,32.20
2023-02-15T07:03:08.298Z,32.20
2023-02-15T07:08:11.187Z,32.30
2023-02-15T07:13:15.385Z,32.30
2023-02-15T07:18:18.291Z,32.40
2023-02-15T07:23:21.150Z,32.40
2023-02-15T07:28:25.404Z,32.50
2023-02-15T07:33:29.868Z,32.50
2023-02-15T07:38:34.351Z,32.50
2023-02-15T07:43:40.177Z,32.80
2023-02-15T07:48:44.006Z,32.50
2023-02-15T07:53:48.020Z,32.40
2023-02-15T07:58:56.776Z,32.50
2023-02-15T08:03:59.848Z,32.50
2023-02-15T08:09:04.753Z,32.70
2023-02-15T08:14:11.120Z,32.60
2023-02-15T08:19:15.942Z,32.60
2023-02-15T08:24:20.863Z,32.70
2023-02-15T08:29:26.707Z,32.60
2023-02-15T08:34:30.361Z,32.60
2023-02-15T08:39:33.295Z,32.70
2023-02-15T08:44:37.469Z,32.70
2023-02-15T08:49:40.336Z,32.60
2023-02-15T08:54:43.278Z,32.60
2023-02-15T08:59:48.301Z,32.50
2023-02-15T09:04:52.644Z,32.50
2023-02-15T09:09:55.517Z,32.50
2023-02-15T09:14:59.709Z,32.40
2023-02-15T09:20:02.640Z,32.50
2023-02-15T09:25:05.752Z,32.40
2023-02-15T09:30:11.088Z,32.40
2023-02-15T09:35:14.433Z,32.50
2023-02-15T09:40:19.006Z,32.40
2023-02-15T09:46:03.534Z,32.30
2023-02-15T09:51:29.203Z,32.30
2023-02-15T09:56:38.337Z,32.20
2023-02-15T10:01:52.304Z,32.20
2023-02-15T10:07:03.515Z,32.00
2023-02-15T10:12:21.611Z,32.00
2023-02-15T10:17:39.827Z,31.90
2023-02-15T10:22:57.240Z,31.90
2023-02-15T10:28:07.355Z,32.00
2023-02-15T10:33:19.889Z,32.00
2023-02-15T10:38:31.176Z,31.90
2023-02-15T10:43:46.003Z,32.00
2023-02-15T10:49:14.681Z,31.80
2023-02-15T10:54:26.794Z,31.80
2023-02-15T11:00:06.334Z,31.70
2023-02-15T11:05:26.117Z,31.80
2023-02-15T11:10:34.096Z,31.80
2023-02-15T11:15:41.256Z,31.80
2023-02-15T11:20:52.895Z,31.80
2023-02-15T11:25:59.584Z,31.90
2023-02-15T11:31:13.399Z,31.90
2023-02-15T11:36:22.315Z,31.90
2023-02-15T11:41:29.122Z,32.00
2023-02-15T11:46:32.331Z,32.00
2023-02-15T11:51:37.815Z,32.00
2023-02-15T11:56:40.706Z,31.90
2023-02-15T12:01:46.117Z,32.00
2023-02-15T12:06:55.082Z,32.00
2023-02-15T12:12:26.473Z,32.00
2023-02-15T12:17:32.794Z,32.10
2023-02-15T12:22:39.387Z,32.10
2023-02-15T12:27:44.924Z,32.20
2023-02-15T12:32:53.838Z,32.20
2023-02-15T12:37:58.393Z,32.20
2023-02-15T12:43:09.404Z,32.20
2023-02-15T12:48:17.784Z,32.20
2023-02-15T12:53:24.318Z,32.20
2023-02-15T12:58:31.233Z,32.20
2023-02-15T13:03:34.270Z,32.30
2023-02-15T13:08:47.171Z,32.30
2023-02-15T13:13:54.939Z,32.30
2023-02-15T13:18:59.396Z,32.30
2023-02-15T13:24:07.227Z,32.40
2023-02-15T13:29:20.152Z,32.50
2023-02-15T13:34:27.681Z,32.70
2023-02-15T13:39:40.431Z,32.70
2023-02-15T13:45:10.117Z,32.80
2023-02-15T13:50:35.947Z,33.00
2023-02-15T13:55:42.178Z,33.00
2023-02-15T14:00:53.284Z,33.00
2023-02-15T14:06:30.957Z,33.10
2023-02-15T14:11:43.898Z,33.00
2023-02-15T14:17:06.681Z,33.00
2023-02-15T14:22:17.824Z,33.00
2023-02-15T14:27:28.960Z,33.10
2023-02-15T14:32:38.550Z,33.00
2023-02-15T14:37:48.021Z,33.10
2023-02-15T14:42:55.720Z,33.10
2023-02-15T14:48:06.396Z,33.20
2023-02-15T14:53:26.876Z,33.20
2023-02-15T14:58:29.926Z,33.30
2023-02-15T15:03:34.502Z,33.20
2023-02-15T15:08:41.952Z,33.30
2023-02-15T15:13:56.311Z,33.30
2023-02-15T15:19:01.420Z,33.40
2023-02-15T15:24:04.757Z,34.00
2023-02-15T15:29:08.514Z,33.40
2023-02-15T15:34:47.494Z,33.40
2023-02-15T15:40:32.320Z,33.40
2023-02-15T15:45:59.842Z,33.60
2023-02-15T15:51:08.617Z,33.70
2023-02-15T15:56:17.263Z,33.70
2023-02-15T16:01:27.851Z,31.70
2023-02-15T16:06:35.062Z,32.70
2023-02-15T16:11:40.416Z,32.70
2023-02-15T16:16:48.282Z,32.90
2023-02-15T16:21:52.609Z,33.10
2023-02-15T16:27:16.876Z,33.20
2023-02-15T16:32:21.983Z,33.30
2023-02-15T16:37:29.031Z,33.70
2023-02-15T16:42:31.921Z,33.70
2023-02-15T16:47:40.949Z,33.70
2023-02-15T16:52:45.704Z,33.70
2023-02-15T16:57:48.623Z,33.90
2023-02-15T17:03:01.935Z,33.90
2023-02-15T17:08:18.048Z,34.00
2023-02-15T17:13:20.944Z,34.00
2023-02-15T17:18:25.230Z,34.10
2023-02-15T17:23:33.464Z,34.50
2023-02-15T17:28:36.965Z,34.70
2023-02-15T17:33:40.446Z,34.60
2023-02-15T17:39:03.963Z,34.60
2023-02-15T17:44:09.244Z,34.50
2023-02-15T17:49:23.219Z,34.00
2023-02-15T17:54:44.980Z,33.70
2023-02-15T18:00:05.186Z,33.50
2023-02-15T18:05:31.263Z,33.20
2023-02-15T18:10:52.802Z,33.40
2023-02-15T18:15:56.403Z,33.60
2023-02-15T18:20:59.221Z,33.60
2023-02-15T18:26:03.407Z,33.40
2023-02-15T18:31:06.846Z,33.20
2023-02-15T18:36:15.718Z,33.00
2023-02-15T18:41:21.805Z,32.80
2023-02-15T18:46:24.661Z,32.60
2023-02-15T18:51:27.608Z,32.00
2023-02-15T18:56:32.820Z,31.40
2023-02-15T19:01:36.044Z,31.30
2023-02-15T19:06:44.307Z,31.20
2023-02-15T19:11:52.712Z,31.00
2023-02-15T19:16:56.465Z,30.90
2023-02-15T19:21:59.951Z,30.60
2023-02-15T19:27:04.441Z,30.90
2023-02-15T19:32:07.587Z,31.60
2023-02-15T19:37:23.544Z,31.60
2023-02-15T19:42:28.588Z,31.60
2023-02-15T19:47:32.319Z,32.00
2023-02-15T19:52:35.428Z,31.80
2023-02-15T19:57:39.750Z,31.60
2023-02-15T20:02:42.624Z,31.40
2023-02-15T20:07:48.265Z,31.30
2023-02-15T20:12:52.451Z,31.10
2023-02-15T20:17:56.505Z,30.90
2023-02-15T20:22:59.374Z,30.20
2023-02-15T20:28:03.543Z,30.50
2023-02-15T20:33:06.546Z,30.60
2023-02-15T20:38:18.548Z,30.80
2023-02-15T20:43:23.492Z,30.90
2023-02-15T20:48:26.424Z,30.70
2023-02-15T20:53:30.153Z,31.00
2023-02-15T20:58:36.010Z,31.70
2023-02-15T21:03:39.063Z,30.80
2023-02-15T21:08:42.459Z,30.80
2023-02-15T21:13:46.761Z,30.70
2023-02-15T21:18:49.561Z,30.70
2023-02-15T21:23:53.893Z,30.30
2023-02-15T21:28:58.108Z,30.30
2023-02-15T21:34:01.620Z,30.30
2023-02-15T21:39:05.211Z,30.20
2023-02-15T21:44:34.680Z,30.70
2023-02-15T21:49:37.505Z,30.50
2023-02-15T21:54:41.310Z,30.60
2023-02-15T21:59:46.610Z,30.90
2023-02-15T22:04:49.462Z,30.90
2023-02-15T22:09:52.333Z,30.60
2023-02-15T22:14:56.656Z,30.40
2023-02-15T22:19:59.532Z,30.50
2023-02-15T22:25:02.412Z,31.00
2023-02-15T22:30:23.193Z,31.60
2023-02-15T22:35:28.599Z,31.40
2023-02-15T22:40:33.778Z,31.60
2023-02-15T22:45:38.305Z,31.70
2023-02-15T22:50:41.200Z,31.60
2023-02-15T22:55:44.737Z,31.60
2023-02-15T23:00:49.201Z,31.30
2023-02-15T23:05:53.038Z,30.30
2023-02-15T23:10:58.361Z,31.00
2023-02-15T23:16:05.092Z,31.20
2023-02-15T23:21:20.241Z,31.30
2023-02-15T23:26:25.413Z,31.30
2023-02-15T23:31:32.365Z,31.20
2023-02-15T23:36:37.335Z,31.20
2023-02-15T23:41:40.450Z,31.20
2023-02-15T23:46:47.436Z,31.20
2023-02-15T23:51:51.891Z,31.20
2023-02-15T23:56:59.181Z,31.30
